createdAt,value
2019-05-29T00:00:34.233Z,8.67
2019-05-29T00:03:02.752Z,8.40
2019-05-29T00:05:31.198Z,8.03
2019-05-29T00:07:59.622Z,8.33
2019-05-29T00:10:28.063Z,8.40
2019-05-29T00:12:56.589Z,8.03
2019-05-29T00:15:25.092Z,7.90
2019-05-29T00:17:53.525Z,8.43
2019-05-29T00:20:21.981Z,8.87
2019-05-29T00:22:50.470Z,7.80
2019-05-29T00:25:18.953Z,7.93
2019-05-29T00:27:47.377Z,8.53
2019-05-29T00:30:17.021Z,8.60
2019-05-29T00:32:46.001Z,7.80
2019-05-29T00:35:14.658Z,7.70
2019-05-29T00:37:43.177Z,7.87
2019-05-29T00:40:12.984Z,7.70
2019-05-29T00:42:41.849Z,7.50
2019-05-29T00:45:11.466Z,7.80
2019-05-29T00:47:40.052Z,6.97
2019-05-29T00:50:09.926Z,6.47
2019-05-29T00:52:38.480Z,6.83
2019-05-29T00:55:08.715Z,7.30
2019-05-29T00:57:37.350Z,7.23
2019-05-29T01:00:07.037Z,7.33
2019-05-29T01:02:35.477Z,6.50
2019-05-29T01:05:05.772Z,6.40
2019-05-29T01:07:34.333Z,6.30
2019-05-29T01:10:03.017Z,6.70
2019-05-29T01:12:31.471Z,6.10
2019-05-29T01:14:59.914Z,6.57
2019-05-29T01:17:28.408Z,5.90
2019-05-29T01:19:56.917Z,6.30
2019-05-29T01:22:25.389Z,7.17
2019-05-29T01:24:53.806Z,6.97
2019-05-29T01:27:23.129Z,7.10
2019-05-29T01:29:51.751Z,7.33
2019-05-29T01:32:20.217Z,6.60
2019-05-29T01:34:48.655Z,7.30
2019-05-29T01:37:18.091Z,6.73
2019-05-29T01:39:46.703Z,6.80
2019-05-29T01:42:15.243Z,6.10
2019-05-29T01:44:43.791Z,6.80
2019-05-29T01:47:12.307Z,6.23
2019-05-29T01:49:40.761Z,8.30
2019-05-29T01:52:09.371Z,6.73
2019-05-29T01:54:37.817Z,6.77
2019-05-29T01:57:06.256Z,6.90
2019-05-29T01:59:34.777Z,6.30
2019-05-29T02:02:03.227Z,6.00
2019-05-29T02:04:31.674Z,6.80
2019-05-29T02:07:00.201Z,6.73
2019-05-29T02:09:28.715Z,7.00
2019-05-29T02:11:57.229Z,6.70
2019-05-29T02:14:26.796Z,6.60
2019-05-29T02:16:55.391Z,6.50
2019-05-29T02:19:24.058Z,6.90
2019-05-29T02:22:11.940Z,6.40
2019-05-29T02:24:40.441Z,6.57
2019-05-29T02:27:08.906Z,6.73
2019-05-29T02:29:37.438Z,6.63
2019-05-29T02:32:05.974Z,5.67
2019-05-29T02:34:34.402Z,5.80
2019-05-29T02:37:02.934Z,6.23
2019-05-29T02:39:31.387Z,5.67
2019-05-29T02:41:59.894Z,5.90
2019-05-29T02:44:29.676Z,6.50
2019-05-29T02:46:58.321Z,5.60
2019-05-29T02:49:28.152Z,6.70
2019-05-29T02:51:56.771Z,5.67
2019-05-29T02:54:27.050Z,6.07
2019-05-29T02:56:55.380Z,6.60
2019-05-29T02:59:25.506Z,6.27
2019-05-29T03:01:54.036Z,5.67
2019-05-29T03:04:24.066Z,7.17
2019-05-29T03:06:52.895Z,6.90
2019-05-29T03:09:22.679Z,6.90
2019-05-29T03:11:51.736Z,6.77
2019-05-29T03:14:20.253Z,7.00
2019-05-29T03:16:48.694Z,6.50
2019-05-29T03:19:17.136Z,6.70
2019-05-29T03:21:45.650Z,7.33
2019-05-29T03:24:14.105Z,7.40
2019-05-29T03:26:42.536Z,7.80
2019-05-29T03:29:10.984Z,7.17
2019-05-29T03:31:46.587Z,8.20
2019-05-29T03:34:09.579Z,7.43
2019-05-29T03:36:46.506Z,7.00
2019-05-29T03:39:08.213Z,8.50
2019-05-29T03:41:36.639Z,8.33
2019-05-29T03:44:05.197Z,7.00
2019-05-29T03:46:42.987Z,7.53
2019-05-29T03:49:05.470Z,8.17
2019-05-29T03:51:35.247Z,7.30
2019-05-29T03:54:04.281Z,7.13
2019-05-29T03:56:34.641Z,7.20
2019-05-29T03:59:02.957Z,7.57
2019-05-29T04:01:33.086Z,6.97
2019-05-29T04:04:01.691Z,8.47
2019-05-29T04:06:31.197Z,6.80
2019-05-29T04:08:59.848Z,7.57
2019-05-29T04:11:29.291Z,7.10
2019-05-29T04:13:57.899Z,7.40
2019-05-29T04:16:28.243Z,7.23
2019-05-29T04:19:10.173Z,7.77
2019-05-29T04:21:41.445Z,7.80
2019-05-29T04:24:10.113Z,9.10
2019-05-29T04:26:41.289Z,7.47
2019-05-29T04:29:11.025Z,7.60
2019-05-29T04:31:39.513Z,7.23
2019-05-29T04:34:08.500Z,7.53
2019-05-29T04:36:38.838Z,8.03
2019-05-29T04:39:07.732Z,7.60
2019-05-29T04:41:37.116Z,8.73
2019-05-29T04:44:06.043Z,9.00
2019-05-29T04:46:36.355Z,9.23
2019-05-29T04:49:05.082Z,7.60
2019-05-29T04:51:35.284Z,7.80
2019-05-29T04:54:04.045Z,7.70
2019-05-29T04:56:32.796Z,7.67
2019-05-29T04:59:01.319Z,7.30
2019-05-29T05:01:30.818Z,7.80
2019-05-29T05:03:59.408Z,7.50
2019-05-29T05:06:29.038Z,7.23
2019-05-29T05:08:57.609Z,7.20
2019-05-29T05:11:26.051Z,8.37
2019-05-29T05:13:54.889Z,6.70
2019-05-29T05:16:23.432Z,7.63
2019-05-29T05:18:51.920Z,8.53
2019-05-29T05:21:20.350Z,7.60
2019-05-29T05:23:48.817Z,7.30
2019-05-29T05:26:17.282Z,8.17
2019-05-29T05:28:48.217Z,11.90
2019-05-29T05:31:15.976Z,9.50
2019-05-29T05:33:44.757Z,7.87
2019-05-29T05:36:13.421Z,7.03
2019-05-29T05:38:41.866Z,6.97
2019-05-29T05:41:10.391Z,6.20
2019-05-29T05:43:39.034Z,5.87
2019-05-29T05:46:07.564Z,5.03
2019-05-29T05:48:37.092Z,9.10
2019-05-29T05:51:05.821Z,5.70
2019-05-29T05:53:35.301Z,4.40
2019-05-29T05:56:04.359Z,4.72
2019-05-29T05:58:33.798Z,5.43
2019-05-29T06:01:02.370Z,4.67
2019-05-29T06:03:31.794Z,5.30
2019-05-29T06:06:00.472Z,5.83
2019-05-29T06:08:28.910Z,5.30
2019-05-29T06:10:57.377Z,4.93
2019-05-29T06:13:25.806Z,3.23
2019-05-29T06:15:54.268Z,3.90
2019-05-29T06:18:22.680Z,4.50
2019-05-29T06:20:51.380Z,4.40
2019-05-29T06:23:19.818Z,4.33
2019-05-29T06:25:48.280Z,4.80
2019-05-29T06:28:16.732Z,3.90
2019-05-29T06:30:45.255Z,3.97
2019-05-29T06:33:13.721Z,3.80
2019-05-29T06:35:42.198Z,2.70
2019-05-29T06:38:10.630Z,2.83
2019-05-29T06:40:42.210Z,2.90
2019-05-29T06:43:21.922Z,2.93
2019-05-29T06:45:50.580Z,3.03
2019-05-29T06:48:42.923Z,2.80
2019-05-29T06:51:01.729Z,2.80
2019-05-29T06:53:30.231Z,2.70
2019-05-29T06:56:00.325Z,2.33
2019-05-29T06:58:28.996Z,2.40
2019-05-29T07:00:57.437Z,2.70
2019-05-29T07:03:26.035Z,4.17
2019-05-29T07:05:54.466Z,3.13
2019-05-29T07:08:37.594Z,2.40
2019-05-29T07:10:53.943Z,2.60
2019-05-29T07:13:22.578Z,3.07
2019-05-29T07:15:51.040Z,2.90
2019-05-29T07:18:19.550Z,2.50
2019-05-29T07:20:47.991Z,2.53
2019-05-29T07:23:16.436Z,2.47
2019-05-29T07:25:45.699Z,2.60
2019-05-29T07:28:14.416Z,2.60
2019-05-29T07:30:48.190Z,2.60
2019-05-29T07:33:13.196Z,2.80
2019-05-29T07:35:41.779Z,4.20
2019-05-29T07:38:10.216Z,3.20
2019-05-29T07:40:40.506Z,4.93
2019-05-29T07:43:08.924Z,5.40
2019-05-29T07:45:37.827Z,3.50
2019-05-29T07:48:06.521Z,2.43
2019-05-29T07:50:34.977Z,2.87
2019-05-29T07:53:03.427Z,2.87
2019-05-29T07:55:31.964Z,2.50
2019-05-29T07:58:00.461Z,3.07
2019-05-29T08:00:35.677Z,3.60
2019-05-29T08:02:59.076Z,3.50
2019-05-29T08:05:27.548Z,2.80
2019-05-29T08:07:55.973Z,2.80
2019-05-29T08:10:24.756Z,2.30
2019-05-29T08:12:55.730Z,2.83
2019-05-29T08:15:23.363Z,2.90
2019-05-29T08:17:51.808Z,2.43
2019-05-29T08:20:20.303Z,2.37
2019-05-29T08:22:48.762Z,2.30
2019-05-29T08:25:17.461Z,2.73
2019-05-29T08:27:46.654Z,2.70
2019-05-29T08:30:16.896Z,2.37
2019-05-29T08:32:45.513Z,2.20
2019-05-29T08:35:14.164Z,2.37
2019-05-29T08:37:42.853Z,2.90
2019-05-29T08:40:11.864Z,3.10
2019-05-29T08:42:41.047Z,2.40
2019-05-29T08:45:11.146Z,3.77
2019-05-29T08:47:39.658Z,2.30
2019-05-29T08:50:17.993Z,2.20
2019-05-29T08:52:38.896Z,2.40
2019-05-29T08:55:07.923Z,2.10
2019-05-29T08:57:36.355Z,2.03
2019-05-29T09:00:09.001Z,1.70
2019-05-29T09:02:37.465Z,2.20
2019-05-29T09:05:07.852Z,2.40
2019-05-29T09:07:36.281Z,1.90
2019-05-29T09:10:08.625Z,2.13
2019-05-29T09:12:37.301Z,2.00
2019-05-29T09:15:10.233Z,2.30
2019-05-29T09:17:39.068Z,2.60
2019-05-29T09:20:27.250Z,2.03
2019-05-29T09:22:39.738Z,3.30
2019-05-29T09:25:11.169Z,1.20
2019-05-29T09:27:39.614Z,1.60
2019-05-29T09:30:08.532Z,1.20
2019-05-29T09:32:49.325Z,1.40
2019-05-29T09:35:07.316Z,0.90
2019-05-29T09:37:35.875Z,1.60
2019-05-29T09:40:07.488Z,1.47
2019-05-29T09:42:35.932Z,1.20
2019-05-29T09:45:06.106Z,0.83
2019-05-29T09:47:34.562Z,1.10
2019-05-29T09:50:04.558Z,1.50
2019-05-29T09:52:33.009Z,1.60
2019-05-29T09:55:02.605Z,1.27
2019-05-29T09:57:31.257Z,1.27
2019-05-29T10:00:01.644Z,1.10
2019-05-29T10:02:29.936Z,1.40
2019-05-29T10:05:00.637Z,1.40
2019-05-29T10:07:28.950Z,1.60
2019-05-29T10:09:58.772Z,1.10
2019-05-29T10:12:27.884Z,1.30
2019-05-29T10:14:57.644Z,1.43
2019-05-29T10:17:27.107Z,1.20
2019-05-29T10:19:57.114Z,1.27
2019-05-29T10:22:25.771Z,1.33
2019-05-29T10:27:33.760Z,1.40
2019-05-29T10:30:11.681Z,1.10
2019-05-29T10:32:44.513Z,1.23
2019-05-29T10:35:13.915Z,1.57
2019-05-29T10:37:42.782Z,2.83
2019-05-29T10:40:11.710Z,5.30
2019-05-29T10:42:40.157Z,5.17
2019-05-29T10:45:09.371Z,2.17
2019-05-29T10:47:37.981Z,3.40
2019-05-29T10:50:08.713Z,2.60
2019-05-29T10:52:37.148Z,1.83
2019-05-29T10:55:07.327Z,1.60
2019-05-29T10:57:35.982Z,1.90
2019-05-29T11:00:08.975Z,1.57
2019-05-29T11:02:40.361Z,1.83
2019-05-29T11:05:09.319Z,1.20
2019-05-29T11:07:39.604Z,1.60
2019-05-29T11:10:14.695Z,1.70
2019-05-29T11:12:40.633Z,1.37
2019-05-29T11:15:21.391Z,1.70
2019-05-29T11:17:47.069Z,1.53
2019-05-29T11:20:17.789Z,1.37
2019-05-29T11:22:47.433Z,1.43
2019-05-29T11:25:22.624Z,1.50
2019-05-29T11:27:46.708Z,3.90
2019-05-29T11:30:15.525Z,2.20
2019-05-29T11:32:50.869Z,1.37
2019-05-29T11:35:17.338Z,1.90
2019-05-29T11:37:46.261Z,5.20
2019-05-29T11:40:15.409Z,4.90
2019-05-29T11:42:43.887Z,2.50
2019-05-29T11:45:13.683Z,2.60
2019-05-29T11:47:42.203Z,1.83
2019-05-29T11:50:19.169Z,1.70
2019-05-29T11:52:43.709Z,1.80
2019-05-29T11:55:12.837Z,3.00
2019-05-29T11:57:50.016Z,1.53
2019-05-29T12:00:22.245Z,2.13
2019-05-29T12:02:51.479Z,2.20
2019-05-29T12:05:23.528Z,1.83
2019-05-29T12:07:53.466Z,2.07
2019-05-29T12:10:22.635Z,1.80
2019-05-29T12:12:51.451Z,4.40
2019-05-29T12:15:20.409Z,7.50
2019-05-29T12:17:48.982Z,3.33
2019-05-29T12:20:27.888Z,3.87
2019-05-29T12:23:13.403Z,7.17
2019-05-29T12:25:18.671Z,3.30
2019-05-29T12:27:47.127Z,1.80
2019-05-29T12:30:16.234Z,2.20
2019-05-29T12:32:45.009Z,1.60
2019-05-29T12:35:14.258Z,2.00
2019-05-29T12:37:42.862Z,2.67
2019-05-29T12:40:11.871Z,2.33
2019-05-29T12:42:44.568Z,1.97
2019-05-29T12:45:11.323Z,3.23
2019-05-29T12:47:39.826Z,2.40
2019-05-29T12:50:12.892Z,2.10
2019-05-29T12:52:46.213Z,1.97
2019-05-29T12:55:17.072Z,2.30
2019-05-29T12:57:51.933Z,2.00
2019-05-29T13:00:21.096Z,2.20
2019-05-29T13:02:49.669Z,2.50
2019-05-29T13:05:20.725Z,3.63
2019-05-29T13:07:49.064Z,2.90
2019-05-29T13:10:30.803Z,5.30
2019-05-29T13:13:02.339Z,2.57
2019-05-29T13:15:27.337Z,2.20
2019-05-29T13:18:10.092Z,2.10
2019-05-29T13:20:38.848Z,2.77
2019-05-29T13:23:10.447Z,1.77
2019-05-29T13:25:39.563Z,1.53
2019-05-29T13:28:08.023Z,5.50
2019-05-29T13:30:38.262Z,2.97
2019-05-29T13:33:08.906Z,4.33
2019-05-29T13:35:37.033Z,2.20
2019-05-29T13:38:05.523Z,1.60
2019-05-29T13:40:33.970Z,1.93
2019-05-29T13:43:11.198Z,2.10
2019-05-29T13:45:36.337Z,1.70
2019-05-29T13:48:05.446Z,2.90
2019-05-29T13:50:34.216Z,2.70
2019-05-29T13:53:03.534Z,2.23
2019-05-29T13:55:32.244Z,3.40
2019-05-29T13:58:01.631Z,9.63
2019-05-29T14:00:34.332Z,2.10
2019-05-29T14:03:00.520Z,2.03
2019-05-29T14:05:28.978Z,2.00
2019-05-29T14:07:58.536Z,2.30
2019-05-29T14:10:27.133Z,5.37
2019-05-29T14:12:55.677Z,2.30
2019-05-29T14:15:24.211Z,1.60
2019-05-29T14:17:52.633Z,5.80
2019-05-29T14:20:21.247Z,11.20
2019-05-29T14:22:49.753Z,3.80
2019-05-29T14:25:18.712Z,3.40
2019-05-29T14:27:47.180Z,3.10
2019-05-29T14:30:16.463Z,3.87
2019-05-29T14:32:44.912Z,3.60
2019-05-29T14:35:13.835Z,3.80
2019-05-29T14:37:42.433Z,3.60
2019-05-29T14:40:12.217Z,2.90
2019-05-29T14:42:40.927Z,2.73
2019-05-29T14:45:10.574Z,3.00
2019-05-29T14:47:39.476Z,3.40
2019-05-29T14:50:09.047Z,5.03
2019-05-29T14:52:38.157Z,2.87
2019-05-29T14:55:09.364Z,4.00
2019-05-29T14:57:38.417Z,5.30
2019-05-29T15:00:22.105Z,16.03
2019-05-29T15:02:43.871Z,5.83
2019-05-29T15:05:14.679Z,10.03
2019-05-29T15:07:46.466Z,18.23
2019-05-29T15:10:26.201Z,4.37
2019-05-29T15:12:46.910Z,6.70
2019-05-29T15:15:27.044Z,3.67
2019-05-29T15:17:55.686Z,8.30
2019-05-29T15:20:24.256Z,4.27
2019-05-29T15:22:52.743Z,3.30
2019-05-29T15:25:24.404Z,10.63
2019-05-29T15:27:53.071Z,7.40
2019-05-29T15:30:24.621Z,9.07
2019-05-29T15:32:58.481Z,19.33
2019-05-29T15:35:27.068Z,5.50
2019-05-29T15:37:55.779Z,4.13
2019-05-29T15:40:37.868Z,3.60
2019-05-29T15:43:06.655Z,18.37
2019-05-29T15:45:39.198Z,7.60
2019-05-29T15:48:10.998Z,2.90
2019-05-29T15:50:44.011Z,4.53
2019-05-29T15:53:13.113Z,6.10
2019-05-29T15:55:41.994Z,3.83
2019-05-29T15:58:11.320Z,4.10
2019-05-29T16:00:39.784Z,3.47
2019-05-29T16:03:09.186Z,4.50
2019-05-29T16:05:38.092Z,5.27
2019-05-29T16:08:07.871Z,12.73
2019-05-29T16:10:36.548Z,6.43
2019-05-29T16:13:05.045Z,7.53
2019-05-29T16:15:33.485Z,4.17
2019-05-29T16:18:01.951Z,7.40
2019-05-29T16:20:30.490Z,31.47
2019-05-29T16:23:00.707Z,4.90
2019-05-29T16:25:39.549Z,18.37
2019-05-29T16:27:59.461Z,8.87
2019-05-29T16:30:27.967Z,11.60
2019-05-29T16:32:56.430Z,30.30
2019-05-29T16:35:24.860Z,28.90
2019-05-29T16:37:53.326Z,5.10
2019-05-29T16:40:22.140Z,8.67
2019-05-29T16:42:50.604Z,6.97
2019-05-29T16:45:20.604Z,4.30
2019-05-29T16:47:49.061Z,3.80
2019-05-29T16:50:19.370Z,8.80
2019-05-29T16:52:48.526Z,4.33
2019-05-29T16:55:17.407Z,8.73
2019-05-29T16:57:46.229Z,4.60
2019-05-29T17:00:15.763Z,3.00
2019-05-29T17:02:44.360Z,3.60
2019-05-29T17:05:13.663Z,2.80
2019-05-29T17:07:42.373Z,2.93
2019-05-29T17:10:14.632Z,2.73
2019-05-29T17:12:43.262Z,2.83
2019-05-29T17:15:15.073Z,2.63
2019-05-29T17:17:43.956Z,2.67
2019-05-29T17:20:18.804Z,2.80
2019-05-29T17:22:47.456Z,3.03
2019-05-29T17:25:16.792Z,2.83
2019-05-29T17:27:45.556Z,2.90
2019-05-29T17:30:17.169Z,2.70
2019-05-29T17:32:47.143Z,3.20
2019-05-29T17:35:17.125Z,3.20
2019-05-29T17:37:45.852Z,3.03
2019-05-29T17:40:14.935Z,2.80
2019-05-29T17:42:43.566Z,2.90
2019-05-29T17:45:13.154Z,2.93
2019-05-29T17:47:44.756Z,2.57
2019-05-29T17:50:13.399Z,3.07
2019-05-29T17:52:42.042Z,2.70
2019-05-29T17:55:11.058Z,2.27
2019-05-29T17:57:42.359Z,2.53
2019-05-29T18:00:13.858Z,2.27
2019-05-29T18:02:51.791Z,2.33
2019-05-29T18:05:16.408Z,3.23
2019-05-29T18:07:44.999Z,2.73
2019-05-29T18:13:02.350Z,5.10
2019-05-29T18:15:30.866Z,4.13
2019-05-29T18:17:59.864Z,2.80
2019-05-29T18:20:28.673Z,2.40
2019-05-29T18:22:57.120Z,2.07
2019-05-29T18:25:26.041Z,2.60
2019-05-29T18:27:54.811Z,2.20
2019-05-29T18:30:24.350Z,2.50
2019-05-29T18:32:53.036Z,2.27
2019-05-29T18:35:21.481Z,2.90
2019-05-29T18:37:56.049Z,2.67
2019-05-29T18:40:32.581Z,2.80
2019-05-29T18:43:01.127Z,2.67
2019-05-29T18:45:29.645Z,3.13
2019-05-29T18:47:58.122Z,2.60
2019-05-29T18:50:27.546Z,3.10
2019-05-29T18:52:56.160Z,2.93
2019-05-29T18:55:24.924Z,3.07
2019-05-29T18:57:53.409Z,2.67
2019-05-29T19:00:23.491Z,2.67
2019-05-29T19:02:54.771Z,2.50
2019-05-29T19:05:23.577Z,2.50
2019-05-29T19:07:52.380Z,3.17
2019-05-29T19:10:21.643Z,3.10
2019-05-29T19:12:50.170Z,2.83
2019-05-29T19:15:18.803Z,3.03
2019-05-29T19:17:47.283Z,3.03
2019-05-29T19:20:16.213Z,2.70
2019-05-29T19:22:44.645Z,2.87
2019-05-29T19:25:13.412Z,3.00
2019-05-29T19:27:42.528Z,3.70
2019-05-29T19:30:12.035Z,4.50
2019-05-29T19:32:56.465Z,5.57
2019-05-29T19:35:25.424Z,4.37
2019-05-29T19:37:54.352Z,4.33
2019-05-29T19:40:24.007Z,3.40
2019-05-29T19:42:54.741Z,3.50
2019-05-29T19:45:30.427Z,4.10
2019-05-29T19:47:59.006Z,3.57
2019-05-29T19:50:32.904Z,3.17
2019-05-29T19:53:01.466Z,3.37
2019-05-29T19:55:32.928Z,3.17
2019-05-29T19:58:00.294Z,3.60
2019-05-29T20:00:30.055Z,4.00
2019-05-29T20:02:58.951Z,3.67
2019-05-29T20:05:28.621Z,3.97
2019-05-29T20:07:57.218Z,3.83
2019-05-29T20:10:26.925Z,3.73
2019-05-29T20:12:55.962Z,4.07
2019-05-29T20:15:27.800Z,5.00
2019-05-29T20:18:04.816Z,4.30
2019-05-29T20:20:39.132Z,3.80
2019-05-29T20:23:13.937Z,3.20
2019-05-29T20:25:45.130Z,3.57
2019-05-29T20:28:38.426Z,2.93
2019-05-29T20:31:12.240Z,3.33
2019-05-29T20:33:43.980Z,3.43
2019-05-29T20:36:12.492Z,3.40
2019-05-29T20:38:41.377Z,3.50
2019-05-29T20:41:09.872Z,6.37
2019-05-29T20:43:41.870Z,5.10
2019-05-29T20:46:13.034Z,4.70
2019-05-29T20:51:43.915Z,4.50
2019-05-29T20:54:12.458Z,4.23
2019-05-29T20:56:41.980Z,4.17
2019-05-29T20:59:10.609Z,4.90
2019-05-29T21:01:45.077Z,3.70
2019-05-29T21:04:15.027Z,4.60
2019-05-29T21:06:46.299Z,4.10
2019-05-29T21:09:15.394Z,3.87
2019-05-29T21:11:53.548Z,4.23
2019-05-29T21:14:28.352Z,4.13
2019-05-29T21:16:57.083Z,4.13
2019-05-29T21:19:31.263Z,4.43
2019-05-29T21:25:01.867Z,4.00
2019-05-29T21:27:22.291Z,4.50
2019-05-29T21:29:50.846Z,4.10
2019-05-29T21:32:21.457Z,4.40
2019-05-29T21:34:52.044Z,4.03
2019-05-29T21:37:20.533Z,3.90
2019-05-29T21:39:48.974Z,4.70
2019-05-29T21:42:17.421Z,4.10
2019-05-29T21:44:46.966Z,4.10
2019-05-29T21:47:15.672Z,4.07
2019-05-29T21:49:45.234Z,4.80
2019-05-29T21:52:18.507Z,4.23
2019-05-29T22:00:48.284Z,4.37
2019-05-29T22:03:17.095Z,3.97
2019-05-29T22:06:07.334Z,4.10
2019-05-29T22:08:50.152Z,3.50
2019-05-29T22:11:17.857Z,3.93
2019-05-29T22:13:58.603Z,4.60
2019-05-29T22:16:34.918Z,4.57
2019-05-29T22:19:16.498Z,3.87
2019-05-29T22:24:59.363Z,5.97
2019-05-29T22:27:27.963Z,4.70
2019-05-29T22:29:57.378Z,4.70
2019-05-29T22:32:32.554Z,4.67
2019-05-29T22:35:02.039Z,4.73
2019-05-29T22:37:40.072Z,5.80
2019-05-29T22:40:08.886Z,6.73
2019-05-29T22:42:37.327Z,5.57
2019-05-29T22:45:06.619Z,5.67
2019-05-29T22:47:35.168Z,5.73
2019-05-29T22:50:09.779Z,6.10
2019-05-29T22:52:38.736Z,7.37
2019-05-29T22:55:31.838Z,6.53
2019-05-29T22:58:02.117Z,5.83
2019-05-29T23:01:08.304Z,5.70
2019-05-29T23:04:05.194Z,6.30
2019-05-29T23:06:48.541Z,6.90
2019-05-29T23:09:16.983Z,6.33
2019-05-29T23:11:49.226Z,6.90
2019-05-29T23:14:20.809Z,6.00
2019-05-29T23:16:56.456Z,6.87
2019-05-29T23:19:30.131Z,7.10
2019-05-29T23:22:02.820Z,6.70
2019-05-29T23:24:42.004Z,7.63
2019-05-29T23:27:10.474Z,6.40
2019-05-29T23:29:48.555Z,6.70
2019-05-29T23:32:12.157Z,5.53
2019-05-29T23:34:44.188Z,5.70
2019-05-29T23:37:14.650Z,5.80
2019-05-29T23:39:57.360Z,6.23
2019-05-29T23:42:27.452Z,5.30
2019-05-29T23:45:01.847Z,5.80
2019-05-29T23:50:26.700Z,5.53
2019-05-29T23:52:55.587Z,5.33
2019-05-29T23:55:36.432Z,5.20
2019-05-29T23:58:08.160Z,5.00
